Terminal Aerodrome Forecast
Issued by NWS

Home | Current Version | Previous Version | Text Only | Print | Product List | Glossary On
Versions: 1 2 3 4 5 6 7 8 9 10 11 12 13 14 15 16 17
000
FTUS41 KGYX 240500
TAFPSM
TAF
KPSM 240520Z 2406/2506 30004KT 6SM -SHRA OVC120
     FM240700 32005KT P6SM OVC150
     FM241300 36010KT P6SM SCT120 OVC200
     FM242100 15006KT P6SM BKN200=

USA.gov is the U.S. government's official web portal to all federal, state and local government web resources and services.